sensor_id;sensor_type;location;lat;lon;timestamp;P1;durP1;ratioP1;P2;durP2;ratioP2
3293;SDS011;1659;51.470;6.770;2023-04-24T00:01:32;5.43;;;1.93;;
3293;SDS011;1659;51.470;6.770;2023-04-24T00:03:59;2.30;;;2.00;;
3293;SDS011;1659;51.470;6.770;2023-04-24T00:06:26;4.23;;;2.03;;
3293;SDS011;1659;51.470;6.770;2023-04-24T00:08:59;2.00;;;1.87;;
3293;SDS011;1659;51.470;6.770;2023-04-24T00:11:26;3.07;;;2.20;;
3293;SDS011;1659;51.470;6.770;2023-04-24T00:13:52;2.40;;;2.27;;
3293;SDS011;1659;51.470;6.770;2023-04-24T00:16:19;4.27;;;2.10;;
3293;SDS011;1659;51.470;6.770;2023-04-24T00:18:46;2.50;;;2.30;;
3293;SDS011;1659;51.470;6.770;2023-04-24T00:21:12;2.07;;;1.80;;
3293;SDS011;1659;51.470;6.770;2023-04-24T00:23:40;2.13;;;2.03;;
3293;SDS011;1659;51.470;6.770;2023-04-24T00:26:07;6.00;;;2.10;;
3293;SDS011;1659;51.470;6.770;2023-04-24T00:28:34;4.00;;;2.57;;
3293;SDS011;1659;51.470;6.770;2023-04-24T00:31:01;2.50;;;2.30;;
3293;SDS011;1659;51.470;6.770;2023-04-24T00:33:28;3.40;;;2.57;;
3293;SDS011;1659;51.470;6.770;2023-04-24T00:35:54;3.57;;;2.23;;
3293;SDS011;1659;51.470;6.770;2023-04-24T00:38:21;2.47;;;2.30;;
3293;SDS011;1659;51.470;6.770;2023-04-24T00:40:48;3.17;;;2.73;;
3293;SDS011;1659;51.470;6.770;2023-04-24T00:43:16;3.13;;;2.93;;
3293;SDS011;1659;51.470;6.770;2023-04-24T00:45:43;2.77;;;2.57;;
3293;SDS011;1659;51.470;6.770;2023-04-24T00:48:10;4.30;;;3.10;;
3293;SDS011;1659;51.470;6.770;2023-04-24T00:50:37;4.47;;;2.87;;
3293;SDS011;1659;51.470;6.770;2023-04-24T00:53:04;4.13;;;3.70;;
3293;SDS011;1659;51.470;6.770;2023-04-24T00:55:31;7.60;;;3.33;;
3293;SDS011;1659;51.470;6.770;2023-04-24T00:57:58;3.27;;;2.90;;
3293;SDS011;1659;51.470;6.770;2023-04-24T01:00:26;4.37;;;3.10;;
3293;SDS011;1659;51.470;6.770;2023-04-24T01:02:53;4.10;;;3.10;;
3293;SDS011;1659;51.470;6.770;2023-04-24T01:05:20;3.83;;;3.37;;
3293;SDS011;1659;51.470;6.770;2023-04-24T01:07:47;5.47;;;3.63;;
3293;SDS011;1659;51.470;6.770;2023-04-24T01:10:14;5.20;;;4.10;;
3293;SDS011;1659;51.470;6.770;2023-04-24T01:12:42;5.03;;;4.10;;
3293;SDS011;1659;51.470;6.770;2023-04-24T01:15:09;5.80;;;3.80;;
3293;SDS011;1659;51.470;6.770;2023-04-24T01:17:37;5.23;;;4.43;;
3293;SDS011;1659;51.470;6.770;2023-04-24T01:20:04;7.57;;;4.37;;
3293;SDS011;1659;51.470;6.770;2023-04-24T01:22:33;6.70;;;4.40;;
3293;SDS011;1659;51.470;6.770;2023-04-24T01:25:00;5.13;;;4.63;;
3293;SDS011;1659;51.470;6.770;2023-04-24T01:27:27;6.50;;;4.80;;
3293;SDS011;1659;51.470;6.770;2023-04-24T01:29:54;9.93;;;5.70;;
3293;SDS011;1659;51.470;6.770;2023-04-24T01:32:20;8.23;;;5.07;;
3293;SDS011;1659;51.470;6.770;2023-04-24T01:34:47;6.40;;;5.80;;
3293;SDS011;1659;51.470;6.770;2023-04-24T01:37:14;10.07;;;6.17;;
3293;SDS011;1659;51.470;6.770;2023-04-24T01:39:43;6.83;;;5.20;;
3293;SDS011;1659;51.470;6.770;2023-04-24T01:42:09;8.90;;;6.47;;
3293;SDS011;1659;51.470;6.770;2023-04-24T01:44:36;6.40;;;5.77;;
3293;SDS011;1659;51.470;6.770;2023-04-24T01:47:03;10.50;;;6.53;;
3293;SDS011;1659;51.470;6.770;2023-04-24T01:49:30;13.20;;;7.67;;
3293;SDS011;1659;51.470;6.770;2023-04-24T01:51:57;9.40;;;7.13;;
3293;SDS011;1659;51.470;6.770;2023-04-24T01:54:23;13.40;;;8.03;;
3293;SDS011;1659;51.470;6.770;2023-04-24T01:56:51;10.30;;;6.27;;
3293;SDS011;1659;51.470;6.770;2023-04-24T01:59:18;9.33;;;6.97;;
3293;SDS011;1659;51.470;6.770;2023-04-24T02:01:47;9.33;;;7.33;;
3293;SDS011;1659;51.470;6.770;2023-04-24T02:04:14;10.43;;;6.40;;
3293;SDS011;1659;51.470;6.770;2023-04-24T02:06:40;10.90;;;7.03;;
3293;SDS011;1659;51.470;6.770;2023-04-24T02:09:07;10.40;;;6.80;;
3293;SDS011;1659;51.470;6.770;2023-04-24T02:11:33;9.67;;;5.80;;
3293;SDS011;1659;51.470;6.770;2023-04-24T02:14:01;9.67;;;6.90;;
3293;SDS011;1659;51.470;6.770;2023-04-24T02:16:28;9.87;;;6.73;;
3293;SDS011;1659;51.470;6.770;2023-04-24T02:18:57;11.83;;;6.80;;
3293;SDS011;1659;51.470;6.770;2023-04-24T02:21:24;11.60;;;7.60;;
3293;SDS011;1659;51.470;6.770;2023-04-24T02:23:52;12.20;;;7.77;;
3293;SDS011;1659;51.470;6.770;2023-04-24T02:26:18;13.80;;;8.27;;
3293;SDS011;1659;51.470;6.770;2023-04-24T02:28:45;10.10;;;7.27;;
3293;SDS011;1659;51.470;6.770;2023-04-24T02:31:13;15.80;;;9.07;;
3293;SDS011;1659;51.470;6.770;2023-04-24T02:33:40;20.20;;;8.80;;
3293;SDS011;1659;51.470;6.770;2023-04-24T02:36:07;12.53;;;8.70;;
3293;SDS011;1659;51.470;6.770;2023-04-24T02:38:33;14.70;;;9.50;;
3293;SDS011;1659;51.470;6.770;2023-04-24T02:41:00;14.97;;;10.20;;
3293;SDS011;1659;51.470;6.770;2023-04-24T02:43:27;15.63;;;10.20;;
3293;SDS011;1659;51.470;6.770;2023-04-24T02:45:53;18.20;;;10.43;;
3293;SDS011;1659;51.470;6.770;2023-04-24T02:48:21;18.50;;;10.20;;
3293;SDS011;1659;51.470;6.770;2023-04-24T02:50:48;20.43;;;11.27;;
3293;SDS011;1659;51.470;6.770;2023-04-24T02:53:15;17.73;;;10.10;;
3293;SDS011;1659;51.470;6.770;2023-04-24T02:55:42;24.30;;;11.23;;
3293;SDS011;1659;51.470;6.770;2023-04-24T02:58:08;20.30;;;11.50;;
3293;SDS011;1659;51.470;6.770;2023-04-24T03:00:35;22.30;;;12.03;;
3293;SDS011;1659;51.470;6.770;2023-04-24T03:03:02;21.27;;;11.30;;
3293;SDS011;1659;51.470;6.770;2023-04-24T03:05:30;17.70;;;11.03;;
3293;SDS011;1659;51.470;6.770;2023-04-24T03:07:57;25.63;;;11.97;;
3293;SDS011;1659;51.470;6.770;2023-04-24T03:10:23;21.73;;;10.60;;
3293;SDS011;1659;51.470;6.770;2023-04-24T03:12:50;23.77;;;12.57;;
3293;SDS011;1659;51.470;6.770;2023-04-24T03:15:16;18.77;;;10.37;;
3293;SDS011;1659;51.470;6.770;2023-04-24T03:17:43;23.80;;;11.87;;
3293;SDS011;1659;51.470;6.770;2023-04-24T03:20:10;23.53;;;10.87;;
3293;SDS011;1659;51.470;6.770;2023-04-24T03:22:37;22.30;;;12.80;;
3293;SDS011;1659;51.470;6.770;2023-04-24T03:25:04;21.13;;;12.50;;
3293;SDS011;1659;51.470;6.770;2023-04-24T03:27:33;25.23;;;11.33;;
3293;SDS011;1659;51.470;6.770;2023-04-24T03:29:59;26.37;;;13.50;;
3293;SDS011;1659;51.470;6.770;2023-04-24T03:32:26;28.90;;;12.80;;
3293;SDS011;1659;51.470;6.770;2023-04-24T03:34:53;25.03;;;12.50;;
3293;SDS011;1659;51.470;6.770;2023-04-24T03:37:19;19.90;;;11.60;;
3293;SDS011;1659;51.470;6.770;2023-04-24T03:39:47;25.50;;;12.73;;
3293;SDS011;1659;51.470;6.770;2023-04-24T03:42:14;19.83;;;12.40;;
3293;SDS011;1659;51.470;6.770;2023-04-24T03:44:40;27.97;;;11.70;;
3293;SDS011;1659;51.470;6.770;2023-04-24T03:47:07;18.00;;;10.83;;
3293;SDS011;1659;51.470;6.770;2023-04-24T03:49:33;20.90;;;13.17;;
3293;SDS011;1659;51.470;6.770;2023-04-24T03:52:00;23.40;;;11.90;;
3293;SDS011;1659;51.470;6.770;2023-04-24T03:54:26;26.43;;;12.37;;
3293;SDS011;1659;51.470;6.770;2023-04-24T03:56:54;23.53;;;12.10;;
3293;SDS011;1659;51.470;6.770;2023-04-24T03:59:20;18.90;;;12.00;;
3293;SDS011;1659;51.470;6.770;2023-04-24T04:01:47;21.23;;;11.93;;
3293;SDS011;1659;51.470;6.770;2023-04-24T04:04:13;19.80;;;10.70;;
3293;SDS011;1659;51.470;6.770;2023-04-24T04:06:40;22.53;;;12.10;;
3293;SDS011;1659;51.470;6.770;2023-04-24T04:09:07;18.57;;;11.27;;
3293;SDS011;1659;51.470;6.770;2023-04-24T04:11:33;19.33;;;11.10;;
3293;SDS011;1659;51.470;6.770;2023-04-24T04:14:02;21.47;;;10.50;;
3293;SDS011;1659;51.470;6.770;2023-04-24T04:16:28;16.37;;;10.10;;
3293;SDS011;1659;51.470;6.770;2023-04-24T04:18:55;19.87;;;11.40;;
3293;SDS011;1659;51.470;6.770;2023-04-24T04:21:21;23.23;;;11.17;;
3293;SDS011;1659;51.470;6.770;2023-04-24T04:23:49;24.70;;;12.97;;
3293;SDS011;1659;51.470;6.770;2023-04-24T04:26:15;17.33;;;11.10;;
3293;SDS011;1659;51.470;6.770;2023-04-24T04:28:44;19.90;;;11.23;;
3293;SDS011;1659;51.470;6.770;2023-04-24T04:31:12;25.80;;;11.80;;
3293;SDS011;1659;51.470;6.770;2023-04-24T04:33:38;20.10;;;11.37;;
3293;SDS011;1659;51.470;6.770;2023-04-24T04:36:05;22.60;;;10.93;;
3293;SDS011;1659;51.470;6.770;2023-04-24T04:38:32;26.93;;;13.83;;
3293;SDS011;1659;51.470;6.770;2023-04-24T04:40:58;21.40;;;11.30;;
3293;SDS011;1659;51.470;6.770;2023-04-24T04:43:25;22.27;;;11.73;;
3293;SDS011;1659;51.470;6.770;2023-04-24T04:45:51;20.03;;;10.03;;
3293;SDS011;1659;51.470;6.770;2023-04-24T04:48:21;27.03;;;11.43;;
3293;SDS011;1659;51.470;6.770;2023-04-24T04:50:47;18.10;;;10.87;;
3293;SDS011;1659;51.470;6.770;2023-04-24T04:53:14;18.50;;;10.00;;
3293;SDS011;1659;51.470;6.770;2023-04-24T04:55:40;17.40;;;10.30;;
3293;SDS011;1659;51.470;6.770;2023-04-24T04:58:07;15.87;;;9.53;;
3293;SDS011;1659;51.470;6.770;2023-04-24T05:00:33;32.63;;;10.60;;
3293;SDS011;1659;51.470;6.770;2023-04-24T05:03:00;16.30;;;9.67;;
3293;SDS011;1659;51.470;6.770;2023-04-24T05:05:29;13.90;;;9.93;;
3293;SDS011;1659;51.470;6.770;2023-04-24T05:07:55;15.10;;;10.13;;
3293;SDS011;1659;51.470;6.770;2023-04-24T05:10:22;17.60;;;10.37;;
3293;SDS011;1659;51.470;6.770;2023-04-24T05:12:48;16.73;;;9.87;;
3293;SDS011;1659;51.470;6.770;2023-04-24T05:15:15;15.37;;;9.97;;
3293;SDS011;1659;51.470;6.770;2023-04-24T05:17:42;16.83;;;10.87;;
3293;SDS011;1659;51.470;6.770;2023-04-24T05:20:08;19.00;;;9.63;;
3293;SDS011;1659;51.470;6.770;2023-04-24T05:22:36;14.30;;;8.90;;
3293;SDS011;1659;51.470;6.770;2023-04-24T05:25:03;14.13;;;8.07;;
3293;SDS011;1659;51.470;6.770;2023-04-24T05:27:30;15.87;;;10.30;;
3293;SDS011;1659;51.470;6.770;2023-04-24T05:29:57;17.60;;;9.50;;
3293;SDS011;1659;51.470;6.770;2023-04-24T05:32:23;17.77;;;9.20;;
3293;SDS011;1659;51.470;6.770;2023-04-24T05:34:52;15.27;;;8.77;;
3293;SDS011;1659;51.470;6.770;2023-04-24T05:37:18;16.80;;;9.40;;
3293;SDS011;1659;51.470;6.770;2023-04-24T05:39:46;15.00;;;9.30;;
3293;SDS011;1659;51.470;6.770;2023-04-24T05:42:13;13.87;;;9.87;;
3293;SDS011;1659;51.470;6.770;2023-04-24T05:44:39;17.53;;;9.80;;
3293;SDS011;1659;51.470;6.770;2023-04-24T05:47:06;20.87;;;9.93;;
3293;SDS011;1659;51.470;6.770;2023-04-24T05:49:32;15.93;;;9.27;;
3293;SDS011;1659;51.470;6.770;2023-04-24T05:51:59;13.63;;;9.00;;
3293;SDS011;1659;51.470;6.770;2023-04-24T05:54:25;15.47;;;9.23;;
3293;SDS011;1659;51.470;6.770;2023-04-24T05:56:53;19.97;;;9.97;;
3293;SDS011;1659;51.470;6.770;2023-04-24T05:59:20;18.73;;;9.17;;
3293;SDS011;1659;51.470;6.770;2023-04-24T06:01:47;15.63;;;9.70;;
3293;SDS011;1659;51.470;6.770;2023-04-24T06:04:14;18.73;;;9.70;;
3293;SDS011;1659;51.470;6.770;2023-04-24T06:06:40;17.70;;;9.90;;
3293;SDS011;1659;51.470;6.770;2023-04-24T06:09:07;16.47;;;9.77;;
3293;SDS011;1659;51.470;6.770;2023-04-24T06:11:33;17.00;;;9.13;;
3293;SDS011;1659;51.470;6.770;2023-04-24T06:14:01;13.27;;;8.20;;
3293;SDS011;1659;51.470;6.770;2023-04-24T06:16:28;17.63;;;10.07;;
3293;SDS011;1659;51.470;6.770;2023-04-24T06:18:56;14.37;;;8.37;;
3293;SDS011;1659;51.470;6.770;2023-04-24T06:21:23;13.57;;;8.03;;
3293;SDS011;1659;51.470;6.770;2023-04-24T06:23:50;18.20;;;9.17;;
3293;SDS011;1659;51.470;6.770;2023-04-24T06:26:17;14.10;;;8.33;;
3293;SDS011;1659;51.470;6.770;2023-04-24T06:28:43;13.53;;;7.93;;
3293;SDS011;1659;51.470;6.770;2023-04-24T06:31:11;16.03;;;7.87;;
3293;SDS011;1659;51.470;6.770;2023-04-24T06:33:38;14.63;;;8.03;;
3293;SDS011;1659;51.470;6.770;2023-04-24T06:36:04;13.53;;;9.00;;
3293;SDS011;1659;51.470;6.770;2023-04-24T06:38:31;14.53;;;8.63;;
3293;SDS011;1659;51.470;6.770;2023-04-24T06:40:58;14.07;;;8.40;;
3293;SDS011;1659;51.470;6.770;2023-04-24T06:43:25;16.13;;;9.00;;
3293;SDS011;1659;51.470;6.770;2023-04-24T06:45:52;11.30;;;7.60;;
3293;SDS011;1659;51.470;6.770;2023-04-24T06:48:19;19.37;;;8.27;;
3293;SDS011;1659;51.470;6.770;2023-04-24T06:50:46;15.20;;;7.90;;
3293;SDS011;1659;51.470;6.770;2023-04-24T06:53:13;12.97;;;8.50;;
3293;SDS011;1659;51.470;6.770;2023-04-24T06:55:39;13.50;;;7.63;;
3293;SDS011;1659;51.470;6.770;2023-04-24T06:58:06;14.10;;;7.33;;
3293;SDS011;1659;51.470;6.770;2023-04-24T07:00:33;13.83;;;7.90;;
3293;SDS011;1659;51.470;6.770;2023-04-24T07:03:00;11.87;;;7.20;;
3293;SDS011;1659;51.470;6.770;2023-04-24T07:05:28;11.17;;;7.00;;
3293;SDS011;1659;51.470;6.770;2023-04-24T07:07:55;9.70;;;6.20;;
3293;SDS011;1659;51.470;6.770;2023-04-24T07:10:23;8.90;;;5.43;;
3293;SDS011;1659;51.470;6.770;2023-04-24T07:12:52;8.60;;;6.20;;
3293;SDS011;1659;51.470;6.770;2023-04-24T07:15:19;5.63;;;4.97;;
3293;SDS011;1659;51.470;6.770;2023-04-24T07:17:45;4.73;;;4.30;;
3293;SDS011;1659;51.470;6.770;2023-04-24T07:20:12;5.33;;;3.50;;
3293;SDS011;1659;51.470;6.770;2023-04-24T07:22:40;6.73;;;3.77;;
3293;SDS011;1659;51.470;6.770;2023-04-24T07:25:08;3.30;;;2.97;;
3293;SDS011;1659;51.470;6.770;2023-04-24T07:27:34;2.83;;;2.53;;
3293;SDS011;1659;51.470;6.770;2023-04-24T07:30:02;4.00;;;2.60;;
3293;SDS011;1659;51.470;6.770;2023-04-24T07:32:29;5.60;;;2.33;;
3293;SDS011;1659;51.470;6.770;2023-04-24T07:34:55;2.40;;;2.20;;
3293;SDS011;1659;51.470;6.770;2023-04-24T07:37:22;2.13;;;1.90;;
3293;SDS011;1659;51.470;6.770;2023-04-24T07:39:50;2.80;;;2.20;;
3293;SDS011;1659;51.470;6.770;2023-04-24T07:42:17;3.00;;;2.47;;
3293;SDS011;1659;51.470;6.770;2023-04-24T07:44:43;2.73;;;2.23;;
3293;SDS011;1659;51.470;6.770;2023-04-24T07:47:11;1.83;;;1.73;;
3293;SDS011;1659;51.470;6.770;2023-04-24T07:49:40;2.43;;;2.20;;
3293;SDS011;1659;51.470;6.770;2023-04-24T07:52:07;6.40;;;2.40;;
3293;SDS011;1659;51.470;6.770;2023-04-24T07:54:33;2.13;;;1.93;;
3293;SDS011;1659;51.470;6.770;2023-04-24T07:57:02;2.30;;;1.97;;
3293;SDS011;1659;51.470;6.770;2023-04-24T07:59:28;2.60;;;2.40;;
3293;SDS011;1659;51.470;6.770;2023-04-24T08:01:55;3.40;;;2.50;;
3293;SDS011;1659;51.470;6.770;2023-04-24T08:04:21;3.13;;;1.80;;
3293;SDS011;1659;51.470;6.770;2023-04-24T08:06:48;2.37;;;2.17;;
3293;SDS011;1659;51.470;6.770;2023-04-24T08:09:15;2.63;;;1.63;;
3293;SDS011;1659;51.470;6.770;2023-04-24T08:11:42;1.90;;;1.80;;
3293;SDS011;1659;51.470;6.770;2023-04-24T08:14:10;1.97;;;1.87;;
3293;SDS011;1659;51.470;6.770;2023-04-24T08:16:38;5.40;;;2.30;;
3293;SDS011;1659;51.470;6.770;2023-04-24T08:19:04;2.73;;;2.53;;
3293;SDS011;1659;51.470;6.770;2023-04-24T08:21:31;2.10;;;2.00;;
3293;SDS011;1659;51.470;6.770;2023-04-24T08:23:58;2.87;;;2.47;;
3293;SDS011;1659;51.470;6.770;2023-04-24T08:26:24;2.80;;;2.50;;
3293;SDS011;1659;51.470;6.770;2023-04-24T08:28:51;2.80;;;2.60;;
3293;SDS011;1659;51.470;6.770;2023-04-24T08:31:19;3.67;;;2.90;;
3293;SDS011;1659;51.470;6.770;2023-04-24T08:33:45;2.83;;;2.57;;
3293;SDS011;1659;51.470;6.770;2023-04-24T08:36:12;2.60;;;2.40;;
3293;SDS011;1659;51.470;6.770;2023-04-24T08:38:39;2.63;;;2.43;;
3293;SDS011;1659;51.470;6.770;2023-04-24T08:41:06;4.57;;;2.63;;
3293;SDS011;1659;51.470;6.770;2023-04-24T08:43:34;3.57;;;2.33;;
3293;SDS011;1659;51.470;6.770;2023-04-24T08:46:03;1.90;;;1.80;;
3293;SDS011;1659;51.470;6.770;2023-04-24T08:48:31;2.70;;;2.23;;
3293;SDS011;1659;51.470;6.770;2023-04-24T08:50:58;1.80;;;1.70;;
3293;SDS011;1659;51.470;6.770;2023-04-24T08:53:26;2.40;;;2.20;;
3293;SDS011;1659;51.470;6.770;2023-04-24T08:55:54;1.70;;;1.60;;
3293;SDS011;1659;51.470;6.770;2023-04-24T08:58:21;2.43;;;2.00;;
3293;SDS011;1659;51.470;6.770;2023-04-24T09:00:49;2.30;;;2.10;;
3293;SDS011;1659;51.470;6.770;2023-04-24T09:03:15;1.70;;;1.60;;
3293;SDS011;1659;51.470;6.770;2023-04-24T09:05:44;3.03;;;2.73;;
3293;SDS011;1659;51.470;6.770;2023-04-24T09:08:13;6.03;;;3.90;;
3293;SDS011;1659;51.470;6.770;2023-04-24T09:10:40;9.77;;;5.50;;
3293;SDS011;1659;51.470;6.770;2023-04-24T09:13:07;10.13;;;6.30;;
3293;SDS011;1659;51.470;6.770;2023-04-24T09:15:35;11.63;;;6.50;;
3293;SDS011;1659;51.470;6.770;2023-04-24T09:18:02;10.50;;;6.50;;
3293;SDS011;1659;51.470;6.770;2023-04-24T09:20:28;11.37;;;6.80;;
3293;SDS011;1659;51.470;6.770;2023-04-24T09:22:57;10.37;;;7.27;;
3293;SDS011;1659;51.470;6.770;2023-04-24T09:25:25;11.40;;;6.77;;
3293;SDS011;1659;51.470;6.770;2023-04-24T09:27:59;12.03;;;5.90;;
3293;SDS011;1659;51.470;6.770;2023-04-24T09:30:26;10.03;;;6.50;;
3293;SDS011;1659;51.470;6.770;2023-04-24T09:35:40;10.20;;;6.57;;
3293;SDS011;1659;51.470;6.770;2023-04-24T09:38:09;10.90;;;6.50;;
3293;SDS011;1659;51.470;6.770;2023-04-24T09:40:36;10.83;;;6.13;;
3293;SDS011;1659;51.470;6.770;2023-04-24T09:43:02;14.47;;;8.27;;
3293;SDS011;1659;51.470;6.770;2023-04-24T09:45:35;9.40;;;6.40;;
3293;SDS011;1659;51.470;6.770;2023-04-24T09:48:02;7.73;;;5.63;;
3293;SDS011;1659;51.470;6.770;2023-04-24T09:50:29;11.87;;;6.40;;
3293;SDS011;1659;51.470;6.770;2023-04-24T09:53:01;10.33;;;6.50;;
3293;SDS011;1659;51.470;6.770;2023-04-24T09:55:30;13.20;;;7.50;;
3293;SDS011;1659;51.470;6.770;2023-04-24T09:57:58;11.43;;;6.60;;
3293;SDS011;1659;51.470;6.770;2023-04-24T10:00:26;11.33;;;7.57;;
3293;SDS011;1659;51.470;6.770;2023-04-24T10:02:54;13.03;;;7.47;;
3293;SDS011;1659;51.470;6.770;2023-04-24T10:05:29;13.10;;;7.60;;
3293;SDS011;1659;51.470;6.770;2023-04-24T10:07:57;10.17;;;5.90;;
3293;SDS011;1659;51.470;6.770;2023-04-24T10:10:26;11.30;;;7.67;;
3293;SDS011;1659;51.470;6.770;2023-04-24T10:12:54;15.93;;;7.37;;
3293;SDS011;1659;51.470;6.770;2023-04-24T10:15:21;16.90;;;6.97;;
3293;SDS011;1659;51.470;6.770;2023-04-24T10:17:48;24.13;;;7.23;;
3293;SDS011;1659;51.470;6.770;2023-04-24T10:20:17;16.10;;;8.10;;
3293;SDS011;1659;51.470;6.770;2023-04-24T10:22:48;12.30;;;6.17;;
3293;SDS011;1659;51.470;6.770;2023-04-24T10:25:16;13.87;;;7.93;;
3293;SDS011;1659;51.470;6.770;2023-04-24T10:27:44;15.30;;;7.30;;
3293;SDS011;1659;51.470;6.770;2023-04-24T10:30:14;9.83;;;6.43;;
3293;SDS011;1659;51.470;6.770;2023-04-24T10:32:41;10.00;;;7.40;;
3293;SDS011;1659;51.470;6.770;2023-04-24T10:35:08;12.30;;;6.30;;
3293;SDS011;1659;51.470;6.770;2023-04-24T10:37:36;14.60;;;7.17;;
3293;SDS011;1659;51.470;6.770;2023-04-24T10:40:05;10.30;;;5.73;;
3293;SDS011;1659;51.470;6.770;2023-04-24T10:42:34;11.30;;;7.03;;
3293;SDS011;1659;51.470;6.770;2023-04-24T10:45:04;12.13;;;6.37;;
3293;SDS011;1659;51.470;6.770;2023-04-24T10:47:40;11.23;;;6.70;;
3293;SDS011;1659;51.470;6.770;2023-04-24T10:50:08;12.10;;;6.90;;
3293;SDS011;1659;51.470;6.770;2023-04-24T10:52:44;14.90;;;6.20;;
3293;SDS011;1659;51.470;6.770;2023-04-24T10:55:12;9.57;;;5.80;;
3293;SDS011;1659;51.470;6.770;2023-04-24T10:57:39;8.50;;;6.20;;
3293;SDS011;1659;51.470;6.770;2023-04-24T11:00:21;11.67;;;6.33;;
3293;SDS011;1659;51.470;6.770;2023-04-24T11:02:49;14.93;;;5.87;;
3293;SDS011;1659;51.470;6.770;2023-04-24T11:05:20;12.13;;;5.90;;
3293;SDS011;1659;51.470;6.770;2023-04-24T11:10:39;13.77;;;6.57;;
3293;SDS011;1659;51.470;6.770;2023-04-24T11:13:07;11.97;;;6.73;;
3293;SDS011;1659;51.470;6.770;2023-04-24T11:15:34;14.70;;;7.30;;
3293;SDS011;1659;51.470;6.770;2023-04-24T11:18:02;18.43;;;7.40;;
3293;SDS011;1659;51.470;6.770;2023-04-24T11:20:29;12.47;;;7.20;;
3293;SDS011;1659;51.470;6.770;2023-04-24T11:22:56;13.53;;;7.00;;
3293;SDS011;1659;51.470;6.770;2023-04-24T11:25:30;12.83;;;7.00;;
3293;SDS011;1659;51.470;6.770;2023-04-24T11:28:02;11.17;;;6.53;;
3293;SDS011;1659;51.470;6.770;2023-04-24T11:30:30;11.17;;;5.60;;
3293;SDS011;1659;51.470;6.770;2023-04-24T11:33:05;16.20;;;6.63;;
3293;SDS011;1659;51.470;6.770;2023-04-24T11:35:34;8.23;;;4.90;;
3293;SDS011;1659;51.470;6.770;2023-04-24T11:38:02;11.57;;;4.97;;
3293;SDS011;1659;51.470;6.770;2023-04-24T11:40:30;9.77;;;5.40;;
3293;SDS011;1659;51.470;6.770;2023-04-24T11:42:59;9.23;;;5.40;;
3293;SDS011;1659;51.470;6.770;2023-04-24T11:45:27;6.97;;;5.33;;
3293;SDS011;1659;51.470;6.770;2023-04-24T11:47:55;12.63;;;5.90;;
3293;SDS011;1659;51.470;6.770;2023-04-24T11:50:24;12.70;;;5.37;;
3293;SDS011;1659;51.470;6.770;2023-04-24T11:52:52;10.17;;;5.07;;
3293;SDS011;1659;51.470;6.770;2023-04-24T11:55:24;8.03;;;4.90;;
3293;SDS011;1659;51.470;6.770;2023-04-24T11:57:53;7.63;;;4.57;;
3293;SDS011;1659;51.470;6.770;2023-04-24T12:00:22;7.60;;;5.27;;
3293;SDS011;1659;51.470;6.770;2023-04-24T12:02:50;5.60;;;4.23;;
3293;SDS011;1659;51.470;6.770;2023-04-24T12:05:20;10.50;;;4.30;;
3293;SDS011;1659;51.470;6.770;2023-04-24T12:07:48;7.40;;;3.60;;
3293;SDS011;1659;51.470;6.770;2023-04-24T12:10:19;4.90;;;4.40;;
3293;SDS011;1659;51.470;6.770;2023-04-24T12:12:46;7.97;;;4.80;;
3293;SDS011;1659;51.470;6.770;2023-04-24T12:15:15;11.97;;;4.80;;
3293;SDS011;1659;51.470;6.770;2023-04-24T12:17:42;5.90;;;4.00;;
3293;SDS011;1659;51.470;6.770;2023-04-24T12:20:10;6.30;;;5.37;;
3293;SDS011;1659;51.470;6.770;2023-04-24T12:22:44;13.63;;;5.17;;
3293;SDS011;1659;51.470;6.770;2023-04-24T12:25:13;7.47;;;4.70;;
3293;SDS011;1659;51.470;6.770;2023-04-24T12:27:40;10.50;;;4.23;;
3293;SDS011;1659;51.470;6.770;2023-04-24T12:30:09;6.10;;;3.50;;
3293;SDS011;1659;51.470;6.770;2023-04-24T12:32:40;6.27;;;3.73;;
3293;SDS011;1659;51.470;6.770;2023-04-24T12:35:08;5.80;;;3.50;;
3293;SDS011;1659;51.470;6.770;2023-04-24T12:37:35;5.33;;;3.37;;
3293;SDS011;1659;51.470;6.770;2023-04-24T12:40:02;3.63;;;3.33;;
3293;SDS011;1659;51.470;6.770;2023-04-24T12:42:33;4.67;;;3.40;;
3293;SDS011;1659;51.470;6.770;2023-04-24T12:45:01;3.53;;;2.70;;
3293;SDS011;1659;51.470;6.770;2023-04-24T12:47:30;7.60;;;2.93;;
3293;SDS011;1659;51.470;6.770;2023-04-24T12:49:57;3.40;;;3.10;;
3293;SDS011;1659;51.470;6.770;2023-04-24T12:52:23;4.83;;;3.43;;
3293;SDS011;1659;51.470;6.770;2023-04-24T12:54:52;5.77;;;3.17;;
3293;SDS011;1659;51.470;6.770;2023-04-24T12:57:19;5.50;;;2.97;;
3293;SDS011;1659;51.470;6.770;2023-04-24T12:59:47;2.37;;;2.13;;
3293;SDS011;1659;51.470;6.770;2023-04-24T13:02:13;2.43;;;2.23;;
3293;SDS011;1659;51.470;6.770;2023-04-24T13:04:42;2.03;;;1.90;;
3293;SDS011;1659;51.470;6.770;2023-04-24T13:07:10;3.43;;;3.23;;
3293;SDS011;1659;51.470;6.770;2023-04-24T13:09:36;4.50;;;2.10;;
3293;SDS011;1659;51.470;6.770;2023-04-24T13:12:03;5.40;;;1.70;;
3293;SDS011;1659;51.470;6.770;2023-04-24T13:14:30;4.33;;;1.90;;
3293;SDS011;1659;51.470;6.770;2023-04-24T13:16:58;2.20;;;2.10;;
3293;SDS011;1659;51.470;6.770;2023-04-24T13:19:25;2.70;;;1.70;;
3293;SDS011;1659;51.470;6.770;2023-04-24T13:21:52;2.17;;;1.97;;
3293;SDS011;1659;51.470;6.770;2023-04-24T13:24:20;7.60;;;2.13;;
3293;SDS011;1659;51.470;6.770;2023-04-24T13:26:49;2.27;;;2.17;;
3293;SDS011;1659;51.470;6.770;2023-04-24T13:29:16;2.90;;;2.57;;
3293;SDS011;1659;51.470;6.770;2023-04-24T13:31:42;3.23;;;2.20;;
3293;SDS011;1659;51.470;6.770;2023-04-24T13:34:10;1.90;;;1.80;;
3293;SDS011;1659;51.470;6.770;2023-04-24T13:36:37;2.77;;;2.00;;
3293;SDS011;1659;51.470;6.770;2023-04-24T13:39:04;7.10;;;2.40;;
3293;SDS011;1659;51.470;6.770;2023-04-24T13:41:32;1.90;;;1.80;;
3293;SDS011;1659;51.470;6.770;2023-04-24T13:43:59;4.90;;;2.20;;
3293;SDS011;1659;51.470;6.770;2023-04-24T13:46:26;2.10;;;1.90;;
3293;SDS011;1659;51.470;6.770;2023-04-24T13:48:52;5.50;;;1.97;;
3293;SDS011;1659;51.470;6.770;2023-04-24T13:51:20;3.67;;;2.03;;
3293;SDS011;1659;51.470;6.770;2023-04-24T13:53:47;2.10;;;2.00;;
3293;SDS011;1659;51.470;6.770;2023-04-24T13:56:13;3.17;;;2.50;;
3293;SDS011;1659;51.470;6.770;2023-04-24T13:58:40;3.17;;;2.20;;
3293;SDS011;1659;51.470;6.770;2023-04-24T14:01:07;2.67;;;2.10;;
3293;SDS011;1659;51.470;6.770;2023-04-24T14:03:34;1.83;;;1.73;;
3293;SDS011;1659;51.470;6.770;2023-04-24T14:06:00;3.97;;;2.90;;
3293;SDS011;1659;51.470;6.770;2023-04-24T14:08:28;6.30;;;2.10;;
3293;SDS011;1659;51.470;6.770;2023-04-24T14:10:54;2.40;;;2.20;;
3293;SDS011;1659;51.470;6.770;2023-04-24T14:13:21;3.77;;;2.43;;
3293;SDS011;1659;51.470;6.770;2023-04-24T14:15:48;3.57;;;2.47;;
3293;SDS011;1659;51.470;6.770;2023-04-24T14:18:15;3.43;;;2.50;;
3293;SDS011;1659;51.470;6.770;2023-04-24T14:20:42;3.70;;;2.13;;
3293;SDS011;1659;51.470;6.770;2023-04-24T14:23:08;2.10;;;2.00;;
3293;SDS011;1659;51.470;6.770;2023-04-24T14:25:36;3.20;;;1.87;;
3293;SDS011;1659;51.470;6.770;2023-04-24T14:28:03;2.30;;;2.20;;
3293;SDS011;1659;51.470;6.770;2023-04-24T14:30:31;2.07;;;1.90;;
3293;SDS011;1659;51.470;6.770;2023-04-24T14:32:58;2.03;;;1.83;;
3293;SDS011;1659;51.470;6.770;2023-04-24T14:35:24;2.60;;;2.40;;
3293;SDS011;1659;51.470;6.770;2023-04-24T14:37:51;2.33;;;2.13;;
3293;SDS011;1659;51.470;6.770;2023-04-24T14:40:17;3.97;;;2.67;;
3293;SDS011;1659;51.470;6.770;2023-04-24T14:42:45;3.00;;;2.80;;
3293;SDS011;1659;51.470;6.770;2023-04-24T14:45:12;5.60;;;2.87;;
3293;SDS011;1659;51.470;6.770;2023-04-24T14:47:38;7.23;;;2.57;;
3293;SDS011;1659;51.470;6.770;2023-04-24T14:50:05;4.13;;;3.00;;
3293;SDS011;1659;51.470;6.770;2023-04-24T14:52:35;3.37;;;2.70;;
3293;SDS011;1659;51.470;6.770;2023-04-24T14:55:02;6.33;;;2.57;;
3293;SDS011;1659;51.470;6.770;2023-04-24T14:57:29;3.07;;;2.87;;
3293;SDS011;1659;51.470;6.770;2023-04-24T14:59:57;3.87;;;2.60;;
3293;SDS011;1659;51.470;6.770;2023-04-24T15:02:24;4.97;;;2.90;;
3293;SDS011;1659;51.470;6.770;2023-04-24T15:04:50;3.40;;;3.10;;
3293;SDS011;1659;51.470;6.770;2023-04-24T15:07:17;3.53;;;2.50;;
3293;SDS011;1659;51.470;6.770;2023-04-24T15:09:43;8.30;;;3.37;;
3293;SDS011;1659;51.470;6.770;2023-04-24T15:12:12;3.80;;;2.67;;